Time;durP1;ratioP1;P1;durP2;ratioP2;P2;SDS_P1;SDS_P2;PMS_P1;PMS_P2;Temp;Humidity;BMP_temperature;BMP_pressure;BME280_temperature;BME280_humidity;BME280_pressure;Samples;Min_cycle;Max_cycle;Signal;HPM_P1;HPM_P2
2022/04/05 00:00:27;;;;;;;14.70;3.20;;;5.30;1.00;;;;;;4998981;28;20868;-48
2022/04/05 00:02:52;;;;;;;23.63;3.07;;;5.30;1.00;;;;;;5001616;28;20188;-48
2022/04/05 00:05:18;;;;;;;20.80;3.43;;;5.30;1.00;;;;;;4996071;28;20431;-48
2022/04/05 00:07:44;;;;;;;20.47;3.30;;;5.30;1.00;;;;;;5000599;28;20599;-48
2022/04/05 00:10:10;;;;;;;17.23;2.87;;;5.30;1.00;;;;;;5000785;28;20786;-48
2022/04/05 00:12:35;;;;;;;15.97;4.00;;;5.40;1.00;;;;;;5002696;28;20436;-48
2022/04/05 00:15:02;;;;;;;18.53;3.10;;;5.40;1.00;;;;;;5000936;28;20246;-48
2022/04/05 00:17:27;;;;;;;19.03;3.13;;;5.50;1.00;;;;;;4998814;28;20184;-48
2022/04/05 00:19:53;;;;;;;16.30;3.30;;;5.40;1.00;;;;;;4998506;28;20446;-48
2022/04/05 00:22:18;;;;;;;18.80;2.90;;;5.40;1.00;;;;;;5009627;28;20246;-48
2022/04/05 00:24:44;;;;;;;15.77;2.30;;;5.40;1.00;;;;;;4991619;28;20548;-48
2022/04/05 00:27:09;;;;;;;13.67;2.63;;;5.40;1.00;;;;;;5009866;28;20194;-48
2022/04/05 00:29:35;;;;;;;15.83;2.57;;;5.40;1.00;;;;;;5009599;28;20214;-49
2022/04/05 00:32:00;;;;;;;17.97;3.03;;;5.40;99.90;;;;;;5009311;28;20652;-48
2022/04/05 00:34:26;;;;;;;19.13;2.83;;;5.40;99.90;;;;;;5009509;28;20645;-48
2022/04/05 00:36:53;;;;;;;12.13;2.53;;;5.40;99.90;;;;;;5002863;28;20187;-48
2022/04/05 00:39:19;;;;;;;18.33;2.80;;;5.30;99.90;;;;;;5009621;28;20188;-48
2022/04/05 00:41:44;;;;;;;16.33;2.30;;;5.30;99.90;;;;;;5013439;28;20481;-48
2022/04/05 00:44:10;;;;;;;15.20;2.30;;;5.30;99.90;;;;;;5013082;28;20451;-48
2022/04/05 00:46:35;;;;;;;18.47;2.43;;;5.20;99.90;;;;;;5013002;28;20565;-48
2022/04/05 00:49:02;;;;;;;14.43;3.13;;;5.10;99.90;;;;;;5013454;28;20183;-48
2022/04/05 00:51:27;;;;;;;12.23;2.13;;;5.10;99.90;;;;;;5013203;28;20215;-48
2022/04/05 00:53:59;;;;;;;21.53;3.10;;;5.10;1.00;;;;;;5007103;28;20528;-48
2022/04/05 00:56:27;;;;;;;11.83;2.13;;;5.10;1.00;;;;;;5012796;28;20282;-48
2022/04/05 00:58:54;;;;;;;29.20;2.93;;;5.10;99.90;;;;;;5013455;28;21064;-47
2022/04/05 01:01:22;;;;;;;6.70;2.07;;;5.10;99.90;;;;;;5013014;28;20518;-48
2022/04/05 01:03:49;;;;;;;9.60;3.20;;;5.10;99.90;;;;;;5012817;28;20430;-48
2022/04/05 01:06:21;;;;;;;18.70;2.40;;;5.10;99.90;;;;;;5009294;28;20516;-48
2022/04/05 01:08:47;;;;;;;15.03;3.17;;;5.10;99.90;;;;;;5012875;28;20440;-48
2022/04/05 01:11:13;;;;;;;12.20;2.30;;;5.10;99.90;;;;;;5007198;28;20473;-48
2022/04/05 01:13:38;;;;;;;12.43;2.50;;;5.10;99.90;;;;;;5012709;28;20562;-48
2022/04/05 01:16:04;;;;;;;17.50;3.00;;;5.10;99.90;;;;;;5012965;28;20484;-47
2022/04/05 01:18:30;;;;;;;16.57;2.43;;;5.10;99.90;;;;;;5013180;28;20537;-48
2022/04/05 01:20:56;;;;;;;15.87;2.40;;;5.10;99.90;;;;;;5012644;28;20208;-48
2022/04/05 01:23:22;;;;;;;18.30;2.53;;;5.10;99.90;;;;;;5012755;28;20465;-48
2022/04/05 01:25:49;;;;;;;18.57;2.50;;;5.10;99.90;;;;;;5012621;28;20194;-48
2022/04/05 01:28:14;;;;;;;7.47;2.03;;;5.10;99.90;;;;;;5012337;28;20427;-47
2022/04/05 01:30:40;;;;;;;24.73;2.57;;;5.10;99.90;;;;;;5012397;28;20462;-48
2022/04/05 01:33:07;;;;;;;17.20;2.73;;;5.10;99.90;;;;;;5012417;28;20180;-47
2022/04/05 01:35:33;;;;;;;14.10;2.67;;;5.20;1.00;;;;;;5011986;28;20203;-48
2022/04/05 01:37:59;;;;;;;14.40;2.53;;;5.20;1.00;;;;;;5012110;28;20927;-48
2022/04/05 01:40:25;;;;;;;9.97;2.97;;;5.10;1.00;;;;;;5012608;28;20436;-48
2022/04/05 01:42:51;;;;;;;13.30;2.00;;;5.00;1.00;;;;;;5013197;28;20213;-48
2022/04/05 01:45:16;;;;;;;18.10;2.57;;;5.00;1.00;;;;;;5012737;28;20517;-48
2022/04/05 01:47:42;;;;;;;15.80;3.33;;;4.90;1.00;;;;;;5012157;28;20172;-48
2022/04/05 01:50:08;;;;;;;15.60;2.50;;;4.90;1.00;;;;;;5012263;28;20204;-48
2022/04/05 01:52:33;;;;;;;13.20;2.00;;;4.90;1.00;;;;;;5011168;28;20188;-48
2022/04/05 01:54:59;;;;;;;9.07;2.03;;;4.80;1.00;;;;;;5012598;28;21078;-48
2022/04/05 01:57:24;;;;;;;8.83;1.90;;;4.70;1.00;;;;;;5011735;28;20625;-48
2022/04/05 01:59:50;;;;;;;13.93;2.63;;;4.70;1.00;;;;;;5012014;28;20620;-48
2022/04/05 02:02:16;;;;;;;14.80;2.03;;;4.70;1.00;;;;;;5011874;28;20184;-48
2022/04/05 02:04:41;;;;;;;10.93;2.20;;;4.70;1.00;;;;;;5011754;28;20188;-48
2022/04/05 02:07:13;;;;;;;18.57;2.67;;;4.60;1.00;;;;;;5011766;28;20556;-48
2022/04/05 02:09:38;;;;;;;19.13;2.60;;;4.60;1.00;;;;;;5012134;28;20262;-48
2022/04/05 02:12:05;;;;;;;14.20;2.00;;;4.60;1.00;;;;;;5011795;28;20860;-48
2022/04/05 02:14:30;;;;;;;10.07;2.00;;;4.60;1.00;;;;;;5011627;28;20182;-48
2022/04/05 02:16:56;;;;;;;26.07;2.53;;;4.60;1.00;;;;;;5008121;28;20814;-48
2022/04/05 02:19:21;;;;;;;9.30;1.90;;;4.60;1.00;;;;;;5011565;28;20183;-48
2022/04/05 02:21:47;;;;;;;14.03;2.30;;;4.60;1.00;;;;;;5012080;28;20676;-48
2022/04/05 02:24:12;;;;;;;11.60;1.83;;;4.70;1.00;;;;;;5011577;28;20592;-48
2022/04/05 02:26:39;;;;;;;13.73;2.10;;;4.70;1.00;;;;;;5011869;28;20196;-48
2022/04/05 02:29:06;;;;;;;10.70;2.10;;;4.60;24.60;;;;;;5005798;28;20233;-48
2022/04/05 02:31:31;;;;;;;19.27;2.03;;;4.80;99.90;;;;;;5011205;28;20461;-49
2022/04/05 02:33:57;;;;;;;11.50;2.30;;;4.80;99.90;;;;;;5011141;28;20548;-49
2022/04/05 02:36:22;;;;;;;8.50;1.97;;;4.70;99.90;;;;;;5011370;28;20262;-49
2022/04/05 02:38:48;;;;;;;12.43;2.10;;;4.60;99.90;;;;;;5010967;28;20664;-48
2022/04/05 02:41:13;;;;;;;12.10;2.20;;;4.60;99.90;;;;;;5011292;28;20180;-48
2022/04/05 02:43:40;;;;;;;8.00;2.47;;;4.50;99.90;;;;;;5011558;28;20184;-49
2022/04/05 02:46:08;;;;;;;11.77;2.50;;;4.40;1.00;;;;;;5010724;28;20230;-49
2022/04/05 02:48:33;;;;;;;10.17;2.13;;;4.40;99.90;;;;;;5011301;28;22243;-49
2022/04/05 02:50:59;;;;;;;21.53;2.90;;;4.30;1.00;;;;;;5010732;28;20558;-48
2022/04/05 02:53:25;;;;;;;14.80;2.73;;;4.30;99.90;;;;;;5010761;28;20188;-49
2022/04/05 02:55:50;;;;;;;8.43;2.10;;;4.20;99.90;;;;;;5010744;28;20220;-49
2022/04/05 02:58:16;;;;;;;15.87;2.37;;;4.10;99.90;;;;;;5011156;28;20275;-49
2022/04/05 03:00:41;;;;;;;14.60;2.30;;;4.20;1.00;;;;;;5010489;28;20238;-49
2022/04/05 03:03:07;;;;;;;14.90;3.00;;;4.20;1.00;;;;;;5010527;28;20219;-48
2022/04/05 03:05:32;;;;;;;13.60;2.50;;;4.10;1.00;;;;;;5010485;28;20520;-48
2022/04/05 03:07:58;;;;;;;11.50;2.43;;;4.20;1.00;;;;;;5010845;28;20665;-48
2022/04/05 03:10:25;;;;;;;11.70;2.50;;;4.20;1.00;;;;;;4993325;28;20714;-48
2022/04/05 03:12:50;;;;;;;13.97;2.30;;;4.20;1.00;;;;;;5010775;28;20591;-48
2022/04/05 03:15:16;;;;;;;8.83;1.83;;;4.20;99.90;;;;;;5007339;28;20435;-48
2022/04/05 03:17:44;;;;;;;24.23;2.50;;;4.10;1.00;;;;;;5010435;28;20171;-49
2022/04/05 03:20:13;;;;;;;5.50;1.50;;;4.10;99.90;;;;;;5010487;28;20187;-48
2022/04/05 03:22:40;;;;;;;10.90;1.70;;;4.00;99.90;;;;;;5010428;28;20927;-49
2022/04/05 03:25:06;;;;;;;9.73;2.27;;;4.00;4.50;;;;;;5010333;28;20760;-49
2022/04/05 03:27:31;;;;;;;12.60;1.63;;;4.00;1.00;;;;;;5010494;28;20465;-49
2022/04/05 03:29:57;;;;;;;9.97;1.87;;;4.00;6.10;;;;;;5010508;28;20282;-48
2022/04/05 03:32:22;;;;;;;12.90;1.50;;;4.00;1.00;;;;;;4992595;28;20188;-48
2022/04/05 03:34:50;;;;;;;12.50;1.70;;;4.10;99.90;;;;;;5010609;28;20211;-48
2022/04/05 03:37:15;;;;;;;16.83;2.90;;;4.10;38.90;;;;;;5010397;28;20191;-48
2022/04/05 03:39:41;;;;;;;7.43;1.60;;;4.10;89.60;;;;;;5010418;28;21263;-48
2022/04/05 03:42:07;;;;;;;13.80;2.70;;;4.00;99.90;;;;;;5010341;28;20184;-48
2022/04/05 03:44:32;;;;;;;14.33;2.10;;;4.00;99.90;;;;;;5010022;28;20206;-48
2022/04/05 03:46:59;;;;;;;9.03;1.87;;;4.00;99.90;;;;;;5009734;28;20238;-48
2022/04/05 03:49:25;;;;;;;4.20;1.40;;;4.00;99.90;;;;;;5009850;28;20700;-48
2022/04/05 03:51:51;;;;;;;5.73;1.90;;;3.90;99.90;;;;;;5009729;28;20496;-48
2022/04/05 03:54:16;;;;;;;16.20;3.33;;;3.90;99.90;;;;;;5010079;28;20668;-48
2022/04/05 03:56:42;;;;;;;8.07;1.73;;;3.90;63.10;;;;;;5009845;28;20187;-48
2022/04/05 03:59:07;;;;;;;12.30;1.97;;;3.90;99.90;;;;;;5009307;28;20228;-49
2022/04/05 04:01:33;;;;;;;6.50;1.63;;;3.80;99.90;;;;;;5009725;28;20629;-49
2022/04/05 04:03:58;;;;;;;14.70;1.90;;;3.80;99.90;;;;;;5009448;28;20191;-48
2022/04/05 04:06:24;;;;;;;8.83;1.73;;;3.90;99.90;;;;;;5009685;28;20192;-48
2022/04/05 04:08:49;;;;;;;7.73;2.00;;;3.90;1.00;;;;;;5009494;28;20271;-48
2022/04/05 04:11:15;;;;;;;12.77;2.43;;;3.90;1.00;;;;;;5009238;28;20257;-48
2022/04/05 04:13:40;;;;;;;16.90;3.03;;;3.90;1.00;;;;;;5009218;28;20180;-48
2022/04/05 04:16:06;;;;;;;15.20;2.07;;;3.90;1.00;;;;;;5001051;28;20729;-48
2022/04/05 04:18:31;;;;;;;13.37;1.77;;;3.90;99.90;;;;;;5009395;28;20186;-48
2022/04/05 04:20:57;;;;;;;8.73;2.23;;;3.90;99.90;;;;;;5009383;28;20187;-49
2022/04/05 04:23:23;;;;;;;13.70;2.30;;;3.90;99.90;;;;;;5009256;28;20325;-48
2022/04/05 04:25:48;;;;;;;8.13;1.77;;;3.90;99.90;;;;;;5009017;28;20172;-48
2022/04/05 04:28:14;;;;;;;11.67;1.90;;;3.80;99.90;;;;;;5005507;28;20196;-48
2022/04/05 04:30:40;;;;;;;9.60;1.73;;;3.80;99.90;;;;;;5009674;28;20208;-48
2022/04/05 04:33:06;;;;;;;22.43;1.90;;;3.80;99.90;;;;;;5009552;28;20188;-48
2022/04/05 04:35:32;;;;;;;9.40;1.80;;;3.80;99.90;;;;;;4987671;28;20453;-48
2022/04/05 04:38:01;;;;;;;14.93;2.20;;;3.70;99.90;;;;;;5009169;28;20430;-48
2022/04/05 04:40:27;;;;;;;14.07;2.20;;;3.70;99.90;;;;;;5008923;28;20476;-48
2022/04/05 04:42:53;;;;;;;12.83;2.47;;;3.60;99.90;;;;;;5009104;28;20439;-48
2022/04/05 04:45:18;;;;;;;10.63;2.17;;;3.60;99.90;;;;;;5007730;28;20869;-48
2022/04/05 04:47:44;;;;;;;9.37;2.47;;;3.60;1.00;;;;;;5008927;28;20188;-48
2022/04/05 04:50:11;;;;;;;14.73;2.00;;;3.60;1.00;;;;;;5009074;28;20598;-48
2022/04/05 04:52:37;;;;;;;7.07;2.57;;;3.60;1.00;;;;;;5009163;28;20184;-49
2022/04/05 04:55:03;;;;;;;13.10;2.30;;;3.60;1.00;;;;;;5009092;28;20421;-49
2022/04/05 04:57:29;;;;;;;13.53;2.30;;;3.70;1.00;;;;;;5008804;28;20928;-49
2022/04/05 04:59:54;;;;;;;17.67;2.73;;;3.70;1.00;;;;;;5008660;28;20474;-49
2022/04/05 05:02:22;;;;;;;8.63;2.60;;;3.70;1.00;;;;;;5008740;28;20283;-49
2022/04/05 05:04:49;;;;;;;8.33;2.00;;;3.70;1.00;;;;;;5008981;28;20222;-48
2022/04/05 05:07:15;;;;;;;13.07;2.30;;;3.80;1.00;;;;;;5008807;28;20943;-49
2022/04/05 05:09:41;;;;;;;11.93;2.03;;;3.80;1.00;;;;;;5008948;28;20457;-49
2022/04/05 05:12:10;;;;;;;8.37;2.37;;;3.80;1.00;;;;;;5009016;28;20634;-48
2022/04/05 05:14:39;;;;;;;6.50;1.90;;;3.90;1.00;;;;;;5008678;28;20447;-49
2022/04/05 05:17:05;;;;;;;10.47;2.17;;;3.90;1.00;;;;;;5009010;28;20537;-49
2022/04/05 05:19:31;;;;;;;15.43;2.80;;;4.00;1.00;;;;;;5008675;28;20425;-49
2022/04/05 05:21:57;;;;;;;9.43;1.93;;;4.00;1.00;;;;;;5008870;28;20426;-49
2022/04/05 05:24:22;;;;;;;14.10;2.33;;;4.10;1.00;;;;;;5008764;28;20500;-49
2022/04/05 05:26:48;;;;;;;9.27;2.00;;;4.10;1.00;;;;;;5010742;28;20218;-49
2022/04/05 05:29:15;;;;;;;6.70;1.90;;;4.10;1.00;;;;;;5012580;28;20192;-49
2022/04/05 05:31:41;;;;;;;11.20;2.13;;;4.10;1.00;;;;;;5012778;28;20270;-49
2022/04/05 05:34:06;;;;;;;12.30;1.93;;;4.10;99.90;;;;;;5012918;28;20423;-49
2022/04/05 05:36:32;;;;;;;6.07;1.53;;;4.10;99.90;;;;;;5012615;28;20183;-49
2022/04/05 05:38:58;;;;;;;12.30;1.97;;;4.00;99.90;;;;;;5012326;28;20226;-49
2022/04/05 05:41:23;;;;;;;9.43;2.00;;;4.00;99.90;;;;;;5012132;28;20176;-49
2022/04/05 05:43:49;;;;;;;16.87;2.10;;;4.00;1.00;;;;;;5012358;28;20196;-49
2022/04/05 05:46:15;;;;;;;9.20;1.57;;;4.10;1.00;;;;;;4994937;28;20233;-49
2022/04/05 05:48:41;;;;;;;10.20;2.20;;;4.20;1.00;;;;;;5013285;28;20210;-49
2022/04/05 05:51:07;;;;;;;14.30;2.53;;;4.10;1.00;;;;;;5012611;28;20525;-51
2022/04/05 05:53:33;;;;;;;7.70;1.90;;;4.20;1.00;;;;;;5012023;28;20861;-53
2022/04/05 05:55:58;;;;;;;9.23;2.23;;;4.30;1.00;;;;;;5012365;28;20184;-49
2022/04/05 05:58:24;;;;;;;15.77;2.77;;;4.30;1.00;;;;;;5011658;28;20442;-48
2022/04/05 06:00:50;;;;;;;15.57;2.63;;;4.30;1.00;;;;;;5012072;28;20207;-49
2022/04/05 06:03:17;;;;;;;21.17;2.67;;;4.40;99.90;;;;;;5011647;28;20184;-49
2022/04/05 06:05:43;;;;;;;14.47;2.77;;;4.50;99.90;;;;;;5006902;28;20467;-50
2022/04/05 06:08:10;;;;;;;13.93;2.07;;;4.50;99.90;;;;;;5007683;28;20442;-49
2022/04/05 06:10:36;;;;;;;11.17;2.30;;;4.60;99.90;;;;;;5012153;28;20806;-49
2022/04/05 06:13:02;;;;;;;10.63;2.50;;;4.70;99.90;;;;;;5011681;28;20438;-49
2022/04/05 06:15:29;;;;;;;8.80;2.20;;;4.70;99.90;;;;;;5011430;28;20430;-49
2022/04/05 06:17:55;;;;;;;13.20;2.80;;;4.80;99.90;;;;;;5011380;28;20419;-50
2022/04/05 06:20:22;;;;;;;19.40;2.53;;;4.90;99.90;;;;;;5014825;28;20434;-49
2022/04/05 06:22:53;;;;;;;14.47;2.67;;;5.10;99.90;;;;;;5008067;28;20767;-49
2022/04/05 06:25:20;;;;;;;12.37;2.20;;;5.30;99.90;;;;;;5011340;28;20426;-49
2022/04/05 06:27:46;;;;;;;11.57;2.30;;;5.40;89.70;;;;;;5011436;28;20904;-50
2022/04/05 06:30:14;;;;;;;25.63;2.93;;;5.50;40.90;;;;;;5012135;28;20508;-49
2022/04/05 06:32:40;;;;;;;7.50;2.30;;;5.70;11.80;;;;;;5011163;28;20994;-49
2022/04/05 06:35:07;;;;;;;12.77;2.40;;;5.80;1.00;;;;;;5008761;28;20446;-49
2022/04/05 06:37:35;;;;;;;11.53;2.10;;;5.90;1.00;;;;;;5010686;28;20943;-49
2022/04/05 06:40:01;;;;;;;6.13;1.70;;;5.80;1.00;;;;;;5011623;28;20484;-49
2022/04/05 06:42:29;;;;;;;7.87;1.90;;;5.80;1.00;;;;;;5007445;28;20910;-49
2022/04/05 06:44:54;;;;;;;8.10;1.50;;;5.90;1.00;;;;;;5009540;28;20430;-49
2022/04/05 06:47:20;;;;;;;14.47;2.27;;;5.90;1.00;;;;;;5011351;28;20438;-49
2022/04/05 06:49:45;;;;;;;7.03;1.80;;;6.00;1.00;;;;;;4988737;28;20239;-49
2022/04/05 06:52:11;;;;;;;6.13;1.40;;;6.10;1.00;;;;;;5009424;28;20229;-49
2022/04/05 06:54:36;;;;;;;9.80;1.90;;;6.10;1.00;;;;;;5006078;28;20428;-49
2022/04/05 06:57:03;;;;;;;9.23;1.70;;;6.00;1.00;;;;;;4988947;28;20196;-49
2022/04/05 06:59:29;;;;;;;13.37;2.43;;;6.00;1.00;;;;;;5005636;28;20628;-50
2022/04/05 07:01:54;;;;;;;8.88;1.70;;;6.00;1.00;;;;;;5005642;28;20461;-49
2022/04/05 07:04:20;;;;;;;6.77;1.90;;;6.10;1.00;;;;;;4976546;28;20191;-49
2022/04/05 07:06:45;;;;;;;4.50;1.47;;;6.20;1.00;;;;;;5001150;28;20198;-49
2022/04/05 07:09:11;;;;;;;5.53;1.57;;;6.20;1.00;;;;;;5003090;28;20189;-49
2022/04/05 07:11:37;;;;;;;5.70;1.70;;;6.10;1.00;;;;;;5007282;28;20258;-50
2022/04/05 07:14:03;;;;;;;5.23;1.50;;;6.20;1.00;;;;;;5004657;28;20192;-49
2022/04/05 07:16:28;;;;;;;4.53;1.20;;;6.30;1.00;;;;;;5007380;28;20527;-49
2022/04/05 07:18:54;;;;;;;12.07;2.30;;;6.50;1.00;;;;;;5002015;28;20935;-49
2022/04/05 07:21:20;;;;;;;6.30;1.80;;;6.60;1.00;;;;;;5004549;28;20199;-49
2022/04/05 07:23:50;;;;;;;3.50;1.40;;;6.90;1.00;;;;;;5001152;28;20200;-49
2022/04/05 07:26:15;;;;;;;12.83;1.53;;;7.10;1.00;;;;;;4995883;28;20456;-49
2022/04/05 07:28:42;;;;;;;6.47;1.23;;;7.40;1.00;;;;;;5022448;28;20446;-48
2022/04/05 07:31:08;;;;;;;9.57;1.67;;;7.50;1.00;;;;;;5003362;28;20292;-49
2022/04/05 07:33:33;;;;;;;6.07;1.30;;;7.90;1.00;;;;;;5006821;28;20430;-48
2022/04/05 07:35:59;;;;;;;12.20;1.70;;;8.00;1.00;;;;;;4999267;28;20246;-49
2022/04/05 07:38:25;;;;;;;11.73;1.60;;;8.20;1.00;;;;;;5008271;28;20191;-51
2022/04/05 07:40:52;;;;;;;10.40;1.87;;;8.60;1.00;;;;;;5009927;28;20449;-49
2022/04/05 07:43:26;;;;;;;9.55;1.52;;;8.70;1.00;;;;;;5008616;28;20443;-48
2022/04/05 07:45:52;;;;;;;7.60;1.57;;;8.90;99.90;;;;;;5002867;28;20194;-49
2022/04/05 07:48:25;;;;;;;5.87;1.40;;;9.10;99.90;;;;;;5010115;28;20453;-48
2022/04/05 07:50:51;;;;;;;9.20;1.87;;;9.10;99.90;;;;;;5009670;28;20979;-48
2022/04/05 07:53:17;;;;;;;8.03;1.67;;;8.90;99.90;;;;;;5011366;28;20419;-48
2022/04/05 07:55:43;;;;;;;10.23;2.00;;;8.50;99.90;;;;;;5009487;28;20517;-48
2022/04/05 07:58:09;;;;;;;9.90;1.80;;;8.50;99.90;;;;;;5010856;28;20180;-48
2022/04/05 08:00:36;;;;;;;8.33;1.67;;;8.70;99.90;;;;;;5010194;28;20490;-48
2022/04/05 08:03:02;;;;;;;9.40;1.97;;;8.60;99.90;;;;;;4982244;28;20436;-48
2022/04/05 08:05:27;;;;;;;8.47;1.57;;;8.60;99.90;;;;;;4997189;28;20455;-48
2022/04/05 08:07:54;;;;;;;7.90;1.50;;;8.30;99.90;;;;;;4996443;28;20443;-48
2022/04/05 08:10:20;;;;;;;12.13;1.93;;;8.00;99.90;;;;;;5007309;28;20219;-47
2022/04/05 08:12:48;;;;;;;10.50;1.53;;;7.60;99.90;;;;;;4996820;28;20436;-48
2022/04/05 08:15:20;;;;;;;20.77;2.27;;;7.60;1.00;;;;;;4992418;28;20435;-47
2022/04/05 08:17:46;;;;;;;8.03;2.03;;;7.70;1.00;;;;;;5001060;28;20427;-47
2022/04/05 08:20:13;;;;;;;12.07;1.90;;;7.80;1.00;;;;;;4999033;28;20950;-48
2022/04/05 08:22:39;;;;;;;6.33;1.87;;;7.80;99.90;;;;;;4998914;28;20440;-47
2022/04/05 08:25:06;;;;;;;12.57;2.03;;;7.80;1.00;;;;;;5028696;28;20783;-48
2022/04/05 08:27:33;;;;;;;6.30;2.17;;;8.20;1.00;;;;;;5024261;28;20411;-48
2022/04/05 08:29:58;;;;;;;14.07;2.20;;;8.60;99.90;;;;;;4993324;28;20825;-47
2022/04/05 08:32:24;;;;;;;11.33;1.70;;;9.10;99.90;;;;;;5010007;28;20431;-48
2022/04/05 08:34:49;;;;;;;9.13;2.00;;;9.40;99.90;;;;;;5009833;28;20203;-48
2022/04/05 08:37:15;;;;;;;10.57;1.90;;;9.40;99.90;;;;;;5010030;28;20222;-47
2022/04/05 08:39:42;;;;;;;16.77;2.10;;;9.00;99.90;;;;;;5006149;28;20181;-47
2022/04/05 08:42:08;;;;;;;6.30;1.80;;;8.60;99.90;;;;;;5009361;28;20465;-48
2022/04/05 08:44:34;;;;;;;7.57;1.70;;;8.50;99.90;;;;;;5010062;28;20518;-47
2022/04/05 08:47:01;;;;;;;9.53;1.60;;;8.30;99.90;;;;;;5009667;28;20237;-47
2022/04/05 08:49:28;;;;;;;4.60;1.57;;;8.10;99.90;;;;;;5009966;28;20187;-47
2022/04/05 08:51:54;;;;;;;10.17;1.50;;;7.90;99.90;;;;;;5009533;28;20565;-47
2022/04/05 08:54:20;;;;;;;5.23;1.10;;;7.60;99.90;;;;;;5009853;28;20968;-48
2022/04/05 08:56:47;;;;;;;4.30;1.40;;;7.00;1.00;;;;;;5009891;28;20184;-48
2022/04/05 08:59:15;;;;;;;5.00;1.40;;;6.60;1.00;;;;;;5010046;28;20259;-48
2022/04/05 09:01:41;;;;;;;6.40;1.20;;;6.40;1.00;;;;;;5011922;28;20889;-48
2022/04/05 09:04:07;;;;;;;2.90;1.10;;;6.60;1.00;;;;;;5013720;28;20429;-48
2022/04/05 09:06:34;;;;;;;5.40;1.30;;;7.10;1.00;;;;;;5013673;28;20183;-48
2022/04/05 09:09:18;;;;;;;4.17;1.40;;;7.50;1.00;;;;;;5013917;28;20263;-47
2022/04/05 09:11:47;;;;;;;3.10;1.60;;;7.70;1.00;;;;;;5009237;28;20464;-48
2022/04/05 09:14:13;;;;;;;5.13;1.30;;;7.90;1.00;;;;;;5012541;28;20899;-48
2022/04/05 09:16:38;;;;;;;2.17;1.10;;;8.30;1.00;;;;;;5013814;28;20419;-48
2022/04/05 09:19:12;;;;;;;12.47;1.67;;;8.80;1.00;;;;;;5013710;28;20184;-47
2022/04/05 09:22:00;;;;;;;14.40;2.43;;;9.00;1.00;;;;;;5013719;28;20878;-48
2022/04/05 09:24:33;;;;;;;5.27;1.43;;;9.00;1.00;;;;;;5012982;28;20445;-48
2022/04/05 09:26:59;;;;;;;14.00;2.00;;;8.70;1.00;;;;;;5012476;28;20553;-48
2022/04/05 09:29:40;;;;;;;8.40;1.30;;;8.50;1.00;;;;;;5013234;28;20518;-47
2022/04/05 09:32:06;;;;;;;2.03;1.10;;;7.80;1.00;;;;;;5011971;28;20203;-48
2022/04/05 09:34:32;;;;;;;4.90;1.33;;;7.50;1.00;;;;;;5013351;28;20406;-47
2022/04/05 09:37:07;;;;;;;5.00;1.47;;;7.40;1.00;;;;;;5013351;28;21247;-48
2022/04/05 09:39:33;;;;;;;6.87;1.40;;;7.20;1.00;;;;;;5003487;28;20188;-48
2022/04/05 09:42:02;;;;;;;6.30;1.53;;;7.40;1.00;;;;;;4976446;28;20434;-48
2022/04/05 09:44:33;;;;;;;6.83;1.37;;;7.60;1.00;;;;;;4993769;28;20185;-48
2022/04/05 09:47:14;;;;;;;11.97;1.93;;;7.90;1.00;;;;;;4997402;28;20537;-48
2022/04/05 09:49:41;;;;;;;4.27;1.30;;;8.10;1.00;;;;;;4995126;28;21249;-48
2022/04/05 09:52:27;;;;;;;10.30;2.10;;;8.10;1.00;;;;;;5011843;28;20505;-48
2022/04/05 09:54:54;;;;;;;5.47;1.47;;;8.10;1.00;;;;;;5013319;28;20439;-47
2022/04/05 09:57:30;;;;;;;5.17;1.67;;;8.10;1.00;;;;;;5012718;28;21078;-48
2022/04/05 10:00:08;;;;;;;4.87;1.43;;;8.20;1.00;;;;;;5012971;28;20476;-45
2022/04/05 10:02:34;;;;;;;6.83;1.40;;;8.30;1.00;;;;;;5012715;28;21238;-47
2022/04/05 10:05:09;;;;;;;4.20;1.33;;;8.40;1.00;;;;;;5012693;28;20422;-47
2022/04/05 10:07:36;;;;;;;4.23;1.40;;;8.40;1.00;;;;;;5011994;28;20183;-51
2022/04/05 10:10:06;;;;;;;7.97;1.53;;;8.50;1.00;;;;;;5012627;28;20449;-49
2022/04/05 10:12:32;;;;;;;3.93;1.70;;;8.40;1.00;;;;;;5011982;28;20415;-49
2022/04/05 10:14:59;;;;;;;5.50;1.33;;;8.20;1.00;;;;;;5012667;28;20434;-49
2022/04/05 10:17:26;;;;;;;9.40;1.90;;;8.20;1.00;;;;;;5012718;28;20437;-49
2022/04/05 10:19:54;;;;;;;4.73;1.70;;;8.20;1.00;;;;;;5012432;28;20478;-48
2022/04/05 10:22:22;;;;;;;12.07;1.70;;;8.30;1.00;;;;;;5012332;28;20403;-47
2022/04/05 10:24:52;;;;;;;7.70;1.60;;;8.40;1.00;;;;;;4999614;28;20892;-47
2022/04/05 10:27:18;;;;;;;6.60;1.90;;;8.30;1.00;;;;;;4993245;28;20420;-46
2022/04/05 10:29:45;;;;;;;7.13;1.90;;;8.40;1.00;;;;;;4993151;28;20506;-49
2022/04/05 10:32:33;;;;;;;7.47;1.70;;;8.40;1.00;;;;;;5012139;28;20533;-49
2022/04/05 10:35:06;;;;;;;9.80;1.53;;;8.40;1.00;;;;;;4984277;28;20478;-49
2022/04/05 10:37:36;;;;;;;7.77;1.50;;;8.40;1.00;;;;;;5000730;28;20474;-46
2022/04/05 10:40:02;;;;;;;4.97;1.67;;;8.30;1.00;;;;;;5012094;28;20458;-46
2022/04/05 10:42:53;;;;;;;4.40;1.30;;;8.20;1.00;;;;;;5012351;28;21276;-47
2022/04/05 10:45:20;;;;;;;4.37;1.53;;;8.10;1.00;;;;;;4997270;28;20235;-49
2022/04/05 10:48:17;;;;;;;5.47;1.40;;;8.10;1.00;;;;;;5011446;28;20778;-48
2022/04/05 10:51:09;;;;;;;10.93;2.10;;;7.80;1.00;;;;;;5012388;28;20509;-49
2022/04/05 10:56:29;;;;;;;4.30;1.40;;;7.30;1.00;;;;;;4998670;28;20421;-49
2022/04/05 10:59:05;;;;;;;8.00;1.50;;;7.20;1.00;;;;;;5020023;28;21130;-49
2022/04/05 11:01:43;;;;;;;3.40;1.17;;;7.20;1.00;;;;;;5029085;28;20406;-49
2022/04/05 11:04:16;;;;;;;3.13;1.40;;;7.10;1.00;;;;;;5011116;28;20433;-49
2022/04/05 11:07:06;;;;;;;9.23;2.40;;;7.10;1.00;;;;;;5011541;28;20502;-49
2022/04/05 11:09:45;;;;;;;3.17;1.30;;;7.10;1.00;;;;;;5011786;28;20442;-49
2022/04/05 11:12:16;;;;;;;5.80;1.70;;;7.10;1.00;;;;;;5011349;28;20462;-48
2022/04/05 11:14:49;;;;;;;2.70;1.53;;;7.30;1.00;;;;;;5012598;28;20892;-49
2022/04/05 11:17:17;;;;;;;6.80;1.53;;;7.40;1.00;;;;;;5017241;28;20471;-49
2022/04/05 11:19:47;;;;;;;5.23;1.80;;;7.50;1.00;;;;;;5011223;28;20495;-49
2022/04/05 11:22:23;;;;;;;4.77;2.00;;;7.70;1.00;;;;;;4993713;28;20434;-49
2022/04/05 11:24:55;;;;;;;3.30;1.60;;;8.00;1.00;;;;;;5010894;28;20512;-49
2022/04/05 11:27:45;;;;;;;6.93;2.10;;;8.10;1.00;;;;;;5011361;28;20417;-49
2022/04/05 11:30:26;;;;;;;7.50;1.80;;;8.20;1.00;;;;;;5010959;28;20461;-49
2022/04/05 11:33:12;;;;;;;7.70;2.30;;;8.20;1.00;;;;;;5011326;28;20995;-49
2022/04/05 11:35:42;;;;;;;6.47;1.67;;;8.10;1.00;;;;;;5011279;28;20468;-49
2022/04/05 11:38:12;;;;;;;5.87;2.17;;;7.90;1.00;;;;;;5011075;28;20497;-49
2022/04/05 11:40:42;;;;;;;4.13;1.53;;;7.80;1.00;;;;;;5007586;28;20934;-49
2022/04/05 11:43:17;;;;;;;9.40;1.80;;;7.70;1.00;;;;;;4993254;28;20431;-48
2022/04/05 11:45:47;;;;;;;3.63;1.30;;;7.70;1.00;;;;;;5010891;28;20900;-49
2022/04/05 11:48:20;;;;;;;8.00;1.57;;;7.60;1.00;;;;;;5010678;28;20958;-49
2022/04/05 11:50:47;;;;;;;4.77;1.80;;;7.60;1.00;;;;;;5010230;28;20469;-49
2022/04/05 11:53:23;;;;;;;3.23;1.37;;;7.60;1.00;;;;;;5011363;28;20426;-49
2022/04/05 11:56:10;;;;;;;10.07;1.63;;;7.60;1.00;;;;;;5010493;28;20426;-49
2022/04/05 11:58:38;;;;;;;2.57;1.50;;;7.60;1.00;;;;;;5010161;28;20449;-48
2022/04/05 12:01:09;;;;;;;8.30;1.80;;;7.70;1.00;;;;;;5010470;28;20430;-49
2022/04/05 12:03:41;;;;;;;3.53;1.20;;;7.60;1.00;;;;;;5002249;28;20782;-48
2022/04/05 12:06:07;;;;;;;6.03;1.60;;;7.50;1.00;;;;;;4993876;28;20469;-50
2022/04/05 12:08:33;;;;;;;7.57;1.60;;;7.40;1.00;;;;;;5001946;28;20445;-48
2022/04/05 12:10:58;;;;;;;9.47;2.10;;;7.60;1.00;;;;;;5010123;28;20482;-49
2022/04/05 12:13:34;;;;;;;4.93;1.37;;;7.70;1.00;;;;;;5009597;28;20699;-49
2022/04/05 12:16:01;;;;;;;4.07;1.40;;;8.00;1.00;;;;;;5001612;28;20187;-49
2022/04/05 12:18:28;;;;;;;5.27;1.40;;;8.00;1.00;;;;;;4997010;28;20439;-49
2022/04/05 12:20:54;;;;;;;4.43;1.10;;;8.00;1.00;;;;;;5006186;28;20992;-53
2022/04/05 12:23:21;;;;;;;9.13;1.67;;;8.00;1.00;;;;;;5009956;28;20525;-49
2022/04/05 12:26:16;;;;;;;3.30;1.50;;;7.80;1.00;;;;;;5002904;28;20199;-49
2022/04/05 12:28:45;;;;;;;5.20;1.33;;;7.70;1.00;;;;;;5009836;28;20434;-49
2022/04/05 12:31:23;;;;;;;5.40;1.57;;;7.70;1.00;;;;;;5006707;28;20823;-49
2022/04/05 12:33:57;;;;;;;3.13;1.43;;;7.60;1.00;;;;;;5006449;28;20805;-49
2022/04/05 12:36:24;;;;;;;5.63;1.73;;;7.60;1.00;;;;;;5009920;28;20818;-49
2022/04/05 12:38:50;;;;;;;4.83;1.73;;;7.70;1.00;;;;;;5010247;28;21008;-50
2022/04/05 12:41:17;;;;;;;5.60;1.20;;;7.70;1.00;;;;;;5004833;28;20439;-49
2022/04/05 12:43:43;;;;;;;3.03;1.67;;;7.70;1.00;;;;;;5006014;28;20298;-49
2022/04/05 12:46:14;;;;;;;3.77;1.47;;;7.80;1.00;;;;;;5009530;28;20505;-49
2022/04/05 12:48:41;;;;;;;6.30;1.60;;;7.80;1.00;;;;;;4992168;28;20434;-50
2022/04/05 12:51:08;;;;;;;4.63;1.60;;;7.90;1.00;;;;;;5009446;28;20992;-49
2022/04/05 12:53:38;;;;;;;6.30;1.60;;;7.90;1.00;;;;;;5011979;28;20656;-49
2022/04/05 12:56:13;;;;;;;2.60;1.50;;;7.90;1.00;;;;;;5010419;28;20414;-49
2022/04/05 12:58:50;;;;;;;4.13;1.10;;;8.00;1.00;;;;;;5009999;28;20766;-49
2022/04/05 13:01:23;;;;;;;3.27;1.80;;;8.00;1.00;;;;;;4991992;28;20525;-50
2022/04/05 13:04:02;;;;;;;4.10;1.50;;;8.00;1.00;;;;;;5010077;28;20557;-49
2022/04/05 13:06:29;;;;;;;1.50;1.07;;;8.10;1.00;;;;;;5010355;28;20498;-49